»·PEaware :: N737UL CYYJ-KOLM

N737UL :: CYYJ-KOLM

FLIGHT INFORMATION

Flight Status: Arrived
Operator: Privately registered:
United States
More flights under this callsign
Pilot: Tom S. (20391)
Aircraft: CESSNA 172 SKYHAWK
(C172)
More flights by this aircraft type
Origin: CYYJ Victoria Intl
Canada
Destination: KOLM Olympia
United States
More flights between these airports :: More routes between these airports
Route: +JAWBN V4 SEA V27 CARRO V165 OLM
File this flight plan on PilotEdge
Remarks:
Altitude:
(Current/Filed)
9,000ft
Speed:
(Current/Filed)
110kts
Departed: 16-Jun-20 09:18 AM
Arrived: 16-Jun-20 10:53 AM
Distance/Time
Traveled:
102nm/1:35
Distance/Time
To Go:
Arrived

Flight Plot

Page will automatically refresh every two minutes.


Map Options




Map Legend


Flown Route
Filed Route
Departure Airport
Arrival Airport
Navaid (VOR, NDB)
Fix

Horizontal Profiles

Position Reports

Time Latitude Longitude Heading Altitude Ground
Speed
16-Jun-20 09:05 48.646196 -123.419424 106 60ft 0kts
16-Jun-20 09:07 48.646196 -123.419424 106 60ft 0kts
16-Jun-20 09:07 48.646196 -123.419424 106 60ft 0kts
16-Jun-20 09:08 48.646196 -123.419424 106 60ft 0kts
16-Jun-20 09:09 48.646196 -123.419424 106 60ft 0kts
16-Jun-20 09:10 48.646196 -123.419424 106 60ft 0kts
16-Jun-20 09:11 48.646196 -123.419424 106 60ft 0kts
16-Jun-20 09:12 48.646181 -123.419316 87 60ft 2kts
16-Jun-20 09:13 48.646692 -123.417208 21 67ft 0kts
16-Jun-20 09:14 48.646692 -123.417208 21 67ft 0kts
16-Jun-20 09:15 48.646692 -123.417208 21 67ft 0kts
16-Jun-20 09:16 48.647672 -123.417876 277 63ft 16kts
16-Jun-20 09:17 48.650005 -123.435019 272 352ft 47kts
16-Jun-20 09:18 48.637713 -123.425258 131 741ft 66kts
16-Jun-20 09:19 48.626868 -123.402603 132 1125ft 67kts
16-Jun-20 09:20 48.608727 -123.401742 190 1541ft 75kts
16-Jun-20 09:21 48.586983 -123.399223 174 2045ft 80kts
16-Jun-20 09:22 48.565172 -123.392549 171 2539ft 79kts
16-Jun-20 09:23 48.544141 -123.385825 169 3033ft 75kts
16-Jun-20 09:24 48.524611 -123.379531 168 3522ft 68kts
16-Jun-20 09:25 48.507575 -123.373899 165 3986ft 54kts
16-Jun-20 09:26 48.494138 -123.359147 161 4170ft 67kts
16-Jun-20 09:27 48.488449 -123.348314 129 4181ft 90kts
16-Jun-20 09:28 48.462367 -123.346793 204 4316ft 98kts
16-Jun-20 09:29 48.437823 -123.353072 166 4646ft 89kts
16-Jun-20 09:30 48.414469 -123.344693 165 5034ft 84kts
16-Jun-20 09:31 48.391893 -123.337273 165 5426ft 81kts
16-Jun-20 09:32 48.370003 -123.330289 165 5816ft 79kts
16-Jun-20 09:33 48.348987 -123.323596 164 6203ft 75kts
16-Jun-20 09:34 48.329552 -123.317324 163 6582ft 65kts
16-Jun-20 09:35 48.314928 -123.303649 123 6824ft 62kts
16-Jun-20 09:36 48.310539 -123.283087 165 7012ft 63kts
16-Jun-20 09:37 48.292704 -123.279872 186 7157ft 73kts
16-Jun-20 09:38 48.271316 -123.291881 188 7359ft 87kts
16-Jun-20 09:39 48.246529 -123.290645 166 7567ft 92kts
16-Jun-20 09:40 48.220995 -123.282924 164 7758ft 95kts
16-Jun-20 09:41 48.195076 -123.274759 164 7947ft 95kts
16-Jun-20 09:42 48.169411 -123.267901 169 8141ft 95kts
16-Jun-20 09:43 48.144626 -123.260794 167 8334ft 94kts
16-Jun-20 09:44 48.119824 -123.253095 167 8529ft 94kts
16-Jun-20 09:45 48.095671 -123.245553 167 8685ft 96kts
16-Jun-20 09:46 48.070628 -123.237858 168 8702ft 104kts
16-Jun-20 09:47 48.045513 -123.230289 169 8702ft 106kts
16-Jun-20 09:48 48.020400 -123.221457 144 8692ft 106kts
16-Jun-20 09:49 48.016826 -123.185675 82 8749ft 99kts
16-Jun-20 09:50 48.019524 -123.148492 84 8897ft 95kts
16-Jun-20 09:51 48.021236 -123.109767 86 8894ft 101kts
16-Jun-20 09:52 48.022889 -123.065145 86 8897ft 102kts
16-Jun-20 09:53 48.024623 -123.020473 85 8900ft 103kts
16-Jun-20 09:54 48.026276 -122.977683 85 8903ft 103kts
16-Jun-20 09:55 48.027915 -122.934869 85 8907ft 103kts
16-Jun-20 09:56 48.029545 -122.891908 85 8910ft 104kts
16-Jun-20 09:57 48.030828 -122.848683 99 8913ft 104kts
16-Jun-20 09:58 48.009389 -122.822342 150 8912ft 108kts
16-Jun-20 09:59 47.984041 -122.800485 149 8908ft 102kts
16-Jun-20 10:00 47.960304 -122.779119 148 8905ft 98kts
16-Jun-20 10:01 47.933760 -122.755517 149 8533ft 111kts
16-Jun-20 10:02 47.910841 -122.734706 148 8530ft 102kts
16-Jun-20 10:03 47.888472 -122.714330 149 8525ft 98kts
16-Jun-20 10:04 47.868679 -122.696460 149 8522ft 97kts
16-Jun-20 10:05 47.848901 -122.678607 149 8521ft 100kts
16-Jun-20 10:06 47.829673 -122.661172 150 8518ft 108kts
16-Jun-20 10:07 47.809606 -122.643265 150 8517ft 109kts
16-Jun-20 10:08 47.787025 -122.623079 149 8517ft 110kts
16-Jun-20 10:09 47.762693 -122.601284 149 8517ft 110kts
16-Jun-20 10:10 47.739793 -122.580780 149 8516ft 110kts
16-Jun-20 10:11 47.717392 -122.560740 149 8515ft 110kts
16-Jun-20 10:12 47.694652 -122.540421 149 8514ft 110kts
16-Jun-20 10:13 47.670282 -122.518665 149 8513ft 110kts
16-Jun-20 10:14 47.645419 -122.496493 149 8512ft 110kts
16-Jun-20 10:15 47.621515 -122.475202 149 8511ft 110kts
16-Jun-20 10:16 47.598610 -122.454823 150 8511ft 110kts
16-Jun-20 10:17 47.573022 -122.432082 150 8510ft 110kts
16-Jun-20 10:18 47.549332 -122.411054 150 8509ft 110kts
16-Jun-20 10:19 47.526078 -122.390433 150 8509ft 110kts
16-Jun-20 10:20 47.504199 -122.371050 150 8510ft 110kts
16-Jun-20 10:21 47.483164 -122.352431 150 8510ft 110kts
16-Jun-20 10:22 47.466414 -122.337629 152 8508ft 106kts
16-Jun-20 10:23 47.450035 -122.323263 152 8509ft 93kts
16-Jun-20 10:24 47.433134 -122.320075 236 8511ft 78kts
16-Jun-20 10:25 47.426452 -122.344337 255 8537ft 66kts
16-Jun-20 10:26 47.424120 -122.367452 267 8417ft 76kts
16-Jun-20 10:27 47.422090 -122.390317 291 8351ft 81kts
16-Jun-20 10:28 47.412810 -122.414496 242 8146ft 113kts
16-Jun-20 10:29 47.400607 -122.448035 250 7308ft 116kts
16-Jun-20 10:30 47.391545 -122.480153 249 7176ft 85kts
16-Jun-20 10:31 47.382837 -122.511869 250 6966ft 81kts
16-Jun-20 10:32 47.374279 -122.544832 250 6640ft 96kts
16-Jun-20 10:33 47.366091 -122.576718 250 6309ft 102kts
16-Jun-20 10:34 47.357769 -122.609334 250 5980ft 104kts
16-Jun-20 10:35 47.346805 -122.651923 249 5555ft 105kts
16-Jun-20 10:36 47.335316 -122.696379 249 5115ft 106kts
16-Jun-20 10:37 47.323457 -122.742194 249 4662ft 106kts
16-Jun-20 10:38 47.309243 -122.796997 249 4120ft 106kts
16-Jun-20 10:39 47.294958 -122.851013 238 3694ft 100kts
16-Jun-20 10:40 47.261583 -122.852694 173 3471ft 98kts
16-Jun-20 10:41 47.231277 -122.848178 175 3041ft 105kts
16-Jun-20 10:43 47.203306 -122.844214 175 2699ft 94kts
16-Jun-20 10:44 47.178697 -122.842444 193 2537ft 88kts
16-Jun-20 10:45 47.152906 -122.850662 191 2140ft 98kts
16-Jun-20 10:46 47.126864 -122.858247 191 2003ft 87kts
16-Jun-20 10:47 47.103046 -122.865269 191 2013ft 83kts
16-Jun-20 10:48 47.078636 -122.872436 191 1886ft 95kts
16-Jun-20 10:49 47.046897 -122.881732 191 1321ft 88kts
16-Jun-20 10:50 47.021146 -122.888327 186 1021ft 63kts
16-Jun-20 10:51 46.996848 -122.895981 195 746ft 63kts
16-Jun-20 10:52 46.979612 -122.901515 188 289ft 60kts
16-Jun-20 10:53 46.971370 -122.903717 192 206ft 9kts
16-Jun-20 10:54 46.968412 -122.904541 189 208ft 20kts
16-Jun-20 10:55 46.968084 -122.900824 11 208ft 15kts
16-Jun-20 10:56 46.971821 -122.897490 46 207ft 18kts
16-Jun-20 10:57 46.974338 -122.898194 319 205ft 10kts
16-Jun-20 10:57 46.975782 -122.898644 343 199ft 4kts
16-Jun-20 10:59 46.976008 -122.899218 279 197ft 0kts

Navigation Log

Ident Type
Flight plan parsing failed, navigation log unavailable